createdAt,value
2019-02-15T00:00:27.227Z,22.27
2019-02-15T00:02:55.502Z,25.17
2019-02-15T00:05:23.812Z,22.07
2019-02-15T00:07:52.088Z,22.37
2019-02-15T00:10:20.408Z,24.40
2019-02-15T00:12:48.680Z,21.70
2019-02-15T00:15:16.956Z,22.03
2019-02-15T00:17:52.458Z,22.73
2019-02-15T00:20:22.409Z,21.70
2019-02-15T00:22:50.755Z,19.27
2019-02-15T00:25:19.040Z,18.80
2019-02-15T00:27:47.427Z,24.13
2019-02-15T00:30:15.790Z,20.40
2019-02-15T00:32:44.075Z,20.53
2019-02-15T00:35:12.385Z,22.00
2019-02-15T00:37:40.700Z,24.10
2019-02-15T00:40:08.991Z,24.27
2019-02-15T00:42:37.422Z,28.60
2019-02-15T00:45:06.583Z,20.97
2019-02-15T00:47:45.460Z,21.13
2019-02-15T00:50:30.606Z,19.13
2019-02-15T00:53:16.787Z,20.10
2019-02-15T00:56:02.005Z,20.07
2019-02-15T00:58:35.067Z,19.30
2019-02-15T01:01:07.720Z,21.47
2019-02-15T01:03:40.396Z,20.60
2019-02-15T01:06:18.887Z,20.87
2019-02-15T01:08:57.939Z,22.70
2019-02-15T01:11:27.856Z,21.13
2019-02-15T01:13:56.162Z,21.67
2019-02-15T01:16:24.449Z,22.50
2019-02-15T01:18:52.764Z,22.63
2019-02-15T01:21:21.064Z,20.67
2019-02-15T01:23:49.451Z,22.73
2019-02-15T01:26:19.368Z,25.33
2019-02-15T01:28:49.315Z,21.17
2019-02-15T01:31:35.902Z,22.73
2019-02-15T01:34:20.873Z,18.93
2019-02-15T01:36:53.468Z,21.43
2019-02-15T01:39:40.095Z,23.77
2019-02-15T01:42:13.043Z,23.97
2019-02-15T01:44:45.708Z,17.83
2019-02-15T01:47:15.628Z,20.90
2019-02-15T01:49:44.020Z,23.33
2019-02-15T01:52:12.297Z,21.07
2019-02-15T01:54:40.612Z,22.07
2019-02-15T01:57:08.887Z,21.23
2019-02-15T01:59:37.196Z,21.00
2019-02-15T02:02:05.544Z,20.93
2019-02-15T02:04:33.919Z,21.10
2019-02-15T02:07:02.940Z,19.33
2019-02-15T02:09:31.276Z,20.43
2019-02-15T02:11:59.546Z,23.83
2019-02-15T02:14:27.854Z,22.57
2019-02-15T02:16:56.160Z,20.60
2019-02-15T02:19:24.426Z,22.67
2019-02-15T02:21:52.699Z,21.73
2019-02-15T02:24:20.998Z,24.27
2019-02-15T02:26:49.393Z,23.67
2019-02-15T02:29:17.740Z,25.40
2019-02-15T02:31:46.057Z,23.17
2019-02-15T02:34:14.335Z,24.47
2019-02-15T02:36:50.029Z,20.87
2019-02-15T02:39:18.375Z,24.93
2019-02-15T02:41:46.663Z,21.87
2019-02-15T02:44:14.975Z,20.90
2019-02-15T02:46:43.249Z,22.87
2019-02-15T02:49:11.528Z,20.70
2019-02-15T02:51:39.912Z,24.27
2019-02-15T02:54:08.220Z,20.23
2019-02-15T02:56:36.578Z,23.23
2019-02-15T02:59:04.956Z,20.97
2019-02-15T03:01:33.238Z,22.07
2019-02-15T03:04:01.625Z,25.90
2019-02-15T03:06:29.899Z,22.57
2019-02-15T03:08:58.215Z,25.70
2019-02-15T03:11:26.489Z,25.77
2019-02-15T03:13:55.739Z,26.90
2019-02-15T03:16:24.155Z,26.53
2019-02-15T03:18:52.468Z,27.13
2019-02-15T03:21:20.793Z,24.07
2019-02-15T03:23:49.177Z,25.87
2019-02-15T03:26:17.531Z,23.60
2019-02-15T03:28:45.840Z,25.13
2019-02-15T03:31:14.258Z,22.33
2019-02-15T03:33:42.594Z,22.73
2019-02-15T03:36:12.739Z,25.07
2019-02-15T03:38:48.543Z,25.43
2019-02-15T03:41:27.176Z,23.00
2019-02-15T03:43:55.775Z,23.63
2019-02-15T03:46:24.230Z,21.87
2019-02-15T03:48:52.581Z,22.63
2019-02-15T03:51:20.956Z,23.43
2019-02-15T03:53:49.270Z,28.70
2019-02-15T03:56:17.615Z,26.07
2019-02-15T03:58:45.923Z,24.63
2019-02-15T04:01:14.236Z,26.87
2019-02-15T04:03:42.555Z,23.43
2019-02-15T04:06:10.836Z,24.07
2019-02-15T04:08:39.111Z,20.60
2019-02-15T04:11:07.435Z,20.50
2019-02-15T04:13:35.780Z,19.50
2019-02-15T04:16:04.096Z,22.47
2019-02-15T04:18:32.480Z,20.93
2019-02-15T04:21:00.756Z,24.27
2019-02-15T04:23:29.068Z,18.87
2019-02-15T04:25:57.433Z,20.37
2019-02-15T04:28:26.184Z,20.53
2019-02-15T04:30:54.474Z,20.43
2019-02-15T04:33:22.827Z,23.53
2019-02-15T04:35:51.136Z,22.40
2019-02-15T04:38:19.421Z,21.90
2019-02-15T04:40:47.771Z,25.57
2019-02-15T04:43:16.088Z,23.93
2019-02-15T04:45:44.396Z,23.03
2019-02-15T04:48:12.681Z,24.07
2019-02-15T04:50:41.055Z,28.97
2019-02-15T04:53:09.372Z,23.90
2019-02-15T04:55:37.687Z,23.27
2019-02-15T04:58:06.039Z,27.07
2019-02-15T05:00:35.127Z,26.30
2019-02-15T05:03:03.463Z,24.60
2019-02-15T05:05:31.739Z,22.23
2019-02-15T05:08:00.048Z,24.27
2019-02-15T05:10:28.351Z,22.73
2019-02-15T05:12:56.623Z,22.27
2019-02-15T05:15:24.938Z,23.80
2019-02-15T05:17:53.324Z,21.13
2019-02-15T05:20:21.595Z,26.43
2019-02-15T05:22:50.036Z,25.43
2019-02-15T05:25:18.401Z,26.33
2019-02-15T05:27:46.715Z,25.20
2019-02-15T05:30:15.075Z,21.33
2019-02-15T05:32:43.449Z,26.50
2019-02-15T05:35:11.862Z,23.03
2019-02-15T05:37:40.302Z,26.97
2019-02-15T05:40:08.583Z,28.90
2019-02-15T05:42:36.973Z,28.43
2019-02-15T05:45:06.046Z,37.77
2019-02-15T05:47:34.422Z,30.60
2019-02-15T05:50:02.814Z,25.80
2019-02-15T05:52:31.195Z,28.40
2019-02-15T05:54:59.475Z,26.73
2019-02-15T05:57:27.784Z,22.10
2019-02-15T05:59:56.062Z,23.13
2019-02-15T06:02:24.444Z,26.30
2019-02-15T06:04:52.719Z,24.53
2019-02-15T06:07:21.038Z,22.50
2019-02-15T06:09:49.413Z,22.33
2019-02-15T06:12:17.721Z,26.50
2019-02-15T06:14:46.031Z,21.67
2019-02-15T06:17:14.383Z,26.27
2019-02-15T06:19:42.697Z,23.57
2019-02-15T06:22:11.083Z,25.60
2019-02-15T06:24:39.392Z,27.50
2019-02-15T06:27:07.692Z,20.13
2019-02-15T06:29:35.972Z,24.40
2019-02-15T06:32:04.351Z,24.73
2019-02-15T06:34:32.684Z,25.53
2019-02-15T06:37:01.024Z,25.30
2019-02-15T06:39:29.374Z,25.83
2019-02-15T06:41:57.680Z,26.37
2019-02-15T06:44:25.991Z,32.00
2019-02-15T06:46:54.277Z,25.63
2019-02-15T06:49:23.136Z,26.77
2019-02-15T06:51:51.449Z,28.83
2019-02-15T06:54:19.768Z,26.43
2019-02-15T06:56:48.122Z,24.40
2019-02-15T06:59:23.953Z,29.47
2019-02-15T07:01:56.608Z,29.93
2019-02-15T07:04:29.536Z,24.87
2019-02-15T07:06:57.848Z,23.40
2019-02-15T07:09:26.161Z,26.67
2019-02-15T07:11:54.512Z,30.50
2019-02-15T07:14:22.841Z,26.97
2019-02-15T07:16:51.126Z,23.70
2019-02-15T07:19:19.484Z,26.27
2019-02-15T07:21:48.035Z,26.33
2019-02-15T07:24:16.455Z,27.60
2019-02-15T07:26:44.731Z,23.57
2019-02-15T07:29:13.046Z,21.30
2019-02-15T07:31:41.431Z,28.10
2019-02-15T07:34:09.788Z,22.40
2019-02-15T07:36:38.099Z,22.97
2019-02-15T07:39:06.375Z,25.53
2019-02-15T07:41:34.657Z,30.60
2019-02-15T07:44:03.040Z,24.87
2019-02-15T07:46:31.428Z,22.73
2019-02-15T07:48:59.783Z,23.57
2019-02-15T07:51:28.093Z,24.80
2019-02-15T07:53:56.376Z,22.50
2019-02-15T07:56:24.680Z,22.17
2019-02-15T07:58:52.985Z,24.10
2019-02-15T08:01:21.313Z,23.83
2019-02-15T08:03:49.668Z,19.73
2019-02-15T08:06:17.942Z,24.73
2019-02-15T08:08:46.324Z,22.50
2019-02-15T08:11:14.779Z,22.53
2019-02-15T08:13:43.160Z,20.77
2019-02-15T08:16:11.469Z,22.40
2019-02-15T08:18:39.744Z,21.30
2019-02-15T08:21:08.071Z,21.87
2019-02-15T08:23:36.424Z,26.07
2019-02-15T08:26:04.800Z,22.53
2019-02-15T08:28:33.109Z,20.93
2019-02-15T08:31:01.403Z,26.10
2019-02-15T08:33:29.763Z,27.53
2019-02-15T08:35:58.044Z,23.23
2019-02-15T08:38:27.556Z,20.37
2019-02-15T08:40:56.022Z,21.50
2019-02-15T08:43:24.403Z,21.37
2019-02-15T08:46:00.581Z,21.50
2019-02-15T08:48:22.784Z,27.07
2019-02-15T08:50:51.090Z,22.83
2019-02-15T08:53:19.402Z,21.07
2019-02-15T08:55:47.800Z,19.73
2019-02-15T08:58:16.163Z,27.70
2019-02-15T09:00:44.471Z,23.10
2019-02-15T09:03:12.753Z,23.20
2019-02-15T09:05:41.038Z,23.40
2019-02-15T09:08:09.448Z,35.67
2019-02-15T09:10:37.795Z,26.97
2019-02-15T09:13:06.110Z,24.37
2019-02-15T09:15:34.395Z,21.73
2019-02-15T09:18:02.708Z,23.63
2019-02-15T09:20:31.094Z,24.57
2019-02-15T09:22:59.407Z,24.07
2019-02-15T09:25:27.690Z,21.63
2019-02-15T09:28:15.552Z,22.80
2019-02-15T09:30:45.623Z,24.13
2019-02-15T09:33:13.896Z,22.07
2019-02-15T09:35:42.175Z,19.90
2019-02-15T09:38:10.578Z,25.27
2019-02-15T09:40:38.916Z,20.87
2019-02-15T09:43:07.233Z,21.00
2019-02-15T09:45:35.504Z,24.57
2019-02-15T09:48:03.815Z,27.07
2019-02-15T09:50:32.097Z,22.20
2019-02-15T09:53:00.408Z,21.77
2019-02-15T09:55:28.719Z,21.97
2019-02-15T09:57:57.068Z,19.03
2019-02-15T10:00:25.383Z,25.90
2019-02-15T10:02:53.691Z,24.73
2019-02-15T10:05:21.972Z,24.77
2019-02-15T10:07:50.347Z,26.80
2019-02-15T10:10:18.636Z,27.60
2019-02-15T10:12:47.026Z,20.97
2019-02-15T10:15:15.377Z,22.33
2019-02-15T10:17:43.728Z,19.83
2019-02-15T10:20:12.247Z,21.67
2019-02-15T10:22:40.556Z,23.80
2019-02-15T10:25:09.776Z,23.40
2019-02-15T10:27:38.165Z,20.57
2019-02-15T10:30:11.665Z,24.10
2019-02-15T10:32:40.019Z,28.60
2019-02-15T10:35:10.523Z,24.33
2019-02-15T10:37:38.916Z,24.37
2019-02-15T10:40:09.148Z,24.80
2019-02-15T10:42:37.536Z,23.37
2019-02-15T10:45:14.384Z,21.77
2019-02-15T10:47:42.725Z,19.83
2019-02-15T10:50:11.548Z,26.43
2019-02-15T10:52:39.915Z,22.97
2019-02-15T10:55:08.963Z,32.50
2019-02-15T10:57:37.241Z,28.50
2019-02-15T11:00:13.360Z,22.90
2019-02-15T11:02:41.669Z,22.90
2019-02-15T11:05:09.944Z,22.23
2019-02-15T11:07:38.265Z,22.10
2019-02-15T11:10:08.833Z,25.03
2019-02-15T11:12:37.183Z,20.80
2019-02-15T11:15:14.267Z,22.13
2019-02-15T11:17:43.097Z,22.40
2019-02-15T11:20:18.902Z,20.63
2019-02-15T11:22:47.808Z,22.60
2019-02-15T11:25:16.267Z,20.13
2019-02-15T11:27:44.600Z,20.83
2019-02-15T11:30:16.628Z,21.30
2019-02-15T11:32:44.902Z,20.97
2019-02-15T11:35:13.920Z,20.40
2019-02-15T11:37:42.237Z,20.77
2019-02-15T11:40:15.121Z,23.20
2019-02-15T11:42:43.519Z,28.67
2019-02-15T11:45:15.508Z,23.37
2019-02-15T11:47:43.907Z,26.13
2019-02-15T11:50:13.113Z,20.03
2019-02-15T11:52:41.468Z,21.53
2019-02-15T11:55:10.779Z,17.77
2019-02-15T11:57:39.129Z,22.57
2019-02-15T12:00:15.234Z,21.67
2019-02-15T12:02:43.628Z,20.73
2019-02-15T12:05:12.020Z,13.40
2019-02-15T12:07:40.399Z,15.60
2019-02-15T12:10:11.775Z,15.83
2019-02-15T12:12:40.099Z,16.40
2019-02-15T12:15:09.714Z,16.53
2019-02-15T12:17:38.019Z,15.57
2019-02-15T12:20:09.536Z,21.60
2019-02-15T12:22:37.927Z,19.33
2019-02-15T12:25:07.052Z,19.60
2019-02-15T12:27:35.331Z,14.73
2019-02-15T12:30:05.589Z,15.20
2019-02-15T12:32:33.895Z,15.57
2019-02-15T12:35:02.717Z,16.10
2019-02-15T12:37:30.999Z,22.20
2019-02-15T12:39:59.376Z,20.97
2019-02-15T12:42:27.765Z,19.23
2019-02-15T12:44:56.094Z,19.73
2019-02-15T12:47:24.489Z,19.90
2019-02-15T12:49:52.840Z,17.93
2019-02-15T12:52:21.148Z,19.63
2019-02-15T12:54:49.437Z,18.57
2019-02-15T12:57:17.815Z,18.40
2019-02-15T12:59:46.208Z,20.92
2019-02-15T13:02:14.492Z,17.35
2019-02-15T13:04:42.888Z,17.70
2019-02-15T13:07:11.169Z,19.90
2019-02-15T13:09:39.548Z,17.95
2019-02-15T13:12:07.837Z,21.68
2019-02-15T13:14:36.160Z,18.50
2019-02-15T13:17:05.312Z,16.85
2019-02-15T13:19:33.642Z,19.45
2019-02-15T13:22:01.924Z,17.25
2019-02-15T13:24:30.212Z,15.15
2019-02-15T13:26:58.601Z,22.10
2019-02-15T13:29:26.984Z,14.78
2019-02-15T13:31:55.321Z,13.28
2019-02-15T13:34:23.605Z,13.32
2019-02-15T13:36:51.919Z,17.05
2019-02-15T13:39:20.217Z,15.17
2019-02-15T13:41:48.535Z,14.68
2019-02-15T13:44:17.915Z,15.10
2019-02-15T13:46:46.330Z,14.17
2019-02-15T13:49:14.723Z,14.43
2019-02-15T13:51:43.940Z,14.20
2019-02-15T13:54:12.362Z,13.83
2019-02-15T13:56:40.751Z,11.80
2019-02-15T13:59:09.097Z,15.75
2019-02-15T14:01:37.382Z,18.52
2019-02-15T14:04:05.778Z,13.90
2019-02-15T14:06:34.071Z,12.00
2019-02-15T14:09:02.442Z,12.50
2019-02-15T14:11:30.804Z,13.98
2019-02-15T14:13:59.119Z,13.28
2019-02-15T14:16:27.435Z,13.20
2019-02-15T14:18:55.819Z,14.00
2019-02-15T14:21:24.202Z,13.68
2019-02-15T14:23:52.551Z,15.13
2019-02-15T14:26:20.872Z,14.65
2019-02-15T14:28:49.258Z,13.48
2019-02-15T14:31:17.554Z,15.32
2019-02-15T14:33:45.871Z,13.98
2019-02-15T14:36:14.194Z,18.62
2019-02-15T14:38:42.581Z,19.75
2019-02-15T14:41:10.904Z,22.65
2019-02-15T14:43:39.260Z,19.37
2019-02-15T14:46:07.643Z,16.95
2019-02-15T14:48:36.021Z,20.68
2019-02-15T14:51:04.314Z,15.75
2019-02-15T14:53:32.640Z,15.85
2019-02-15T14:56:01.995Z,19.85
2019-02-15T14:58:30.337Z,17.37
2019-02-15T15:00:58.723Z,15.95
2019-02-15T15:03:27.040Z,18.25
2019-02-15T15:05:55.328Z,15.70
2019-02-15T15:08:23.648Z,22.77
2019-02-15T15:10:51.999Z,14.80
2019-02-15T15:13:20.317Z,18.87
2019-02-15T15:15:48.676Z,18.07
2019-02-15T15:18:16.991Z,17.83
2019-02-15T15:20:45.279Z,16.97
2019-02-15T15:23:13.667Z,15.23
2019-02-15T15:25:41.939Z,21.43
2019-02-15T15:28:10.265Z,19.07
2019-02-15T15:30:38.632Z,15.40
2019-02-15T15:33:07.039Z,17.10
2019-02-15T15:35:35.401Z,16.33
2019-02-15T15:38:03.788Z,18.63
2019-02-15T15:40:32.117Z,15.40
2019-02-15T15:43:00.403Z,14.95
2019-02-15T15:45:28.754Z,16.27
2019-02-15T15:47:57.063Z,17.07
2019-02-15T15:50:25.386Z,17.40
2019-02-15T15:52:53.826Z,13.57
2019-02-15T15:55:22.508Z,13.57
2019-02-15T15:57:50.904Z,14.80
2019-02-15T16:00:19.374Z,12.73
2019-02-15T16:02:48.249Z,13.40
2019-02-15T16:05:16.584Z,14.20
2019-02-15T16:07:44.972Z,13.23
2019-02-15T16:10:14.333Z,17.50
2019-02-15T16:12:42.768Z,16.43
2019-02-15T16:15:12.370Z,16.53
2019-02-15T16:17:40.764Z,16.37
2019-02-15T16:20:12.937Z,16.03
2019-02-15T16:22:41.258Z,15.80
2019-02-15T16:25:10.261Z,14.90
2019-02-15T16:27:38.559Z,16.73
2019-02-15T16:30:12.215Z,14.17
2019-02-15T16:32:40.547Z,14.37
2019-02-15T16:35:09.168Z,14.33
2019-02-15T16:37:37.529Z,16.07
2019-02-15T16:40:14.021Z,14.83
2019-02-15T16:42:42.394Z,16.40
2019-02-15T16:45:17.160Z,16.40
2019-02-15T16:47:45.556Z,14.83
2019-02-15T16:50:13.920Z,12.77
2019-02-15T16:52:42.318Z,17.97
2019-02-15T16:55:13.166Z,16.67
2019-02-15T16:57:40.731Z,14.97
2019-02-15T17:00:13.350Z,17.60
2019-02-15T17:02:41.723Z,15.30
2019-02-15T17:05:10.187Z,22.00
2019-02-15T17:07:38.476Z,17.70
2019-02-15T17:10:08.914Z,15.43
2019-02-15T17:12:37.307Z,17.70
2019-02-15T17:15:08.765Z,14.17
2019-02-15T17:17:37.152Z,13.50
2019-02-15T17:20:07.657Z,17.43
2019-02-15T17:22:36.177Z,14.00
2019-02-15T17:25:06.856Z,15.13
2019-02-15T17:27:35.210Z,14.93
2019-02-15T17:30:05.507Z,14.03
2019-02-15T17:32:33.832Z,16.63
2019-02-15T17:35:02.120Z,15.07
2019-02-15T17:37:30.513Z,15.20
2019-02-15T17:39:58.864Z,16.27
2019-02-15T17:42:27.193Z,15.67
2019-02-15T17:44:55.793Z,12.90
2019-02-15T17:47:24.183Z,14.80
2019-02-15T17:49:52.572Z,16.67
2019-02-15T17:52:20.961Z,13.47
2019-02-15T17:54:49.652Z,15.30
2019-02-15T17:57:18.045Z,14.83
2019-02-15T17:59:46.440Z,17.37
2019-02-15T18:02:14.839Z,17.50
2019-02-15T18:04:43.306Z,16.23
2019-02-15T18:07:11.583Z,14.37
2019-02-15T18:09:39.961Z,14.23
2019-02-15T18:12:08.363Z,15.63
2019-02-15T18:14:36.671Z,14.70
2019-02-15T18:17:04.987Z,16.90
2019-02-15T18:19:33.266Z,17.83
2019-02-15T18:22:03.018Z,16.93
2019-02-15T18:24:31.591Z,16.17
2019-02-15T18:26:59.914Z,17.37
2019-02-15T18:29:28.304Z,20.33
2019-02-15T18:31:56.586Z,16.60
2019-02-15T18:34:24.950Z,14.77
2019-02-15T18:36:53.370Z,14.27
2019-02-15T18:39:21.782Z,13.67
2019-02-15T18:41:50.217Z,14.93
2019-02-15T18:44:18.608Z,15.33
2019-02-15T18:46:46.893Z,13.30
2019-02-15T18:49:19.460Z,14.97
2019-02-15T18:51:45.326Z,14.70
2019-02-15T18:54:13.675Z,15.77
2019-02-15T18:56:42.004Z,14.70
2019-02-15T18:59:10.376Z,17.03
2019-02-15T19:01:38.723Z,15.27
2019-02-15T19:04:07.064Z,36.93
2019-02-15T19:06:35.372Z,14.60
2019-02-15T19:09:04.897Z,14.80
2019-02-15T19:11:33.265Z,13.03
2019-02-15T19:14:01.679Z,15.00
2019-02-15T19:16:30.048Z,14.37
2019-02-15T19:18:58.620Z,14.47
2019-02-15T19:21:27.006Z,12.90
2019-02-15T19:23:55.381Z,14.17
2019-02-15T19:26:23.700Z,12.97
2019-02-15T19:28:52.098Z,13.10
2019-02-15T19:31:20.494Z,15.60
2019-02-15T19:33:48.880Z,14.20
2019-02-15T19:36:17.306Z,12.03
2019-02-15T19:38:45.615Z,13.60
2019-02-15T19:41:14.256Z,13.37
2019-02-15T19:43:42.627Z,14.30
2019-02-15T19:46:11.026Z,16.83
2019-02-15T19:48:39.458Z,12.23
2019-02-15T19:51:07.816Z,13.10
2019-02-15T19:53:36.095Z,15.77
2019-02-15T19:56:04.570Z,13.90
2019-02-15T19:58:32.985Z,13.17
2019-02-15T20:01:01.476Z,12.33
2019-02-15T20:03:29.861Z,13.87
2019-02-15T20:05:58.189Z,12.90
2019-02-15T20:08:27.580Z,11.97
2019-02-15T20:10:55.997Z,14.80
2019-02-15T20:13:24.303Z,13.30
2019-02-15T20:15:52.948Z,13.33
2019-02-15T20:18:21.242Z,11.83
2019-02-15T20:20:49.668Z,12.30
2019-02-15T20:23:17.997Z,12.53
2019-02-15T20:25:46.310Z,11.70
2019-02-15T20:28:14.683Z,12.50
2019-02-15T20:30:43.132Z,12.17
2019-02-15T20:33:11.421Z,15.03
2019-02-15T20:35:39.799Z,11.70
2019-02-15T20:38:08.176Z,12.10
2019-02-15T20:40:36.563Z,13.33
2019-02-15T20:43:04.921Z,13.37
2019-02-15T20:45:33.325Z,12.53
2019-02-15T20:48:01.707Z,11.77
2019-02-15T20:50:30.050Z,16.67
2019-02-15T20:52:58.361Z,11.93
2019-02-15T20:55:26.674Z,12.93
2019-02-15T20:57:55.043Z,14.57
2019-02-15T21:00:32.021Z,11.13
2019-02-15T21:03:00.417Z,12.40
2019-02-15T21:05:29.078Z,14.30
2019-02-15T21:07:57.440Z,11.93
2019-02-15T21:10:25.725Z,12.40
2019-02-15T21:12:54.033Z,16.43
2019-02-15T21:15:24.159Z,14.27
2019-02-15T21:17:52.450Z,14.53
2019-02-15T21:20:20.801Z,14.43
2019-02-15T21:22:49.118Z,17.33
2019-02-15T21:25:17.785Z,14.47
2019-02-15T21:27:47.120Z,18.30
2019-02-15T21:30:21.210Z,16.70
2019-02-15T21:32:49.601Z,17.40
2019-02-15T21:35:17.884Z,15.53
2019-02-15T21:37:46.188Z,16.27
2019-02-15T21:40:17.507Z,12.80
2019-02-15T21:42:45.907Z,12.47
2019-02-15T21:45:14.350Z,13.90
2019-02-15T21:47:42.752Z,12.80
2019-02-15T21:50:17.289Z,12.60
2019-02-15T21:52:44.141Z,13.10
2019-02-15T21:55:14.395Z,13.87
2019-02-15T21:57:42.787Z,14.40
2019-02-15T22:00:13.679Z,14.43
2019-02-15T22:02:42.065Z,13.57
2019-02-15T22:05:10.430Z,14.93
2019-02-15T22:07:38.849Z,12.60
2019-02-15T22:10:09.247Z,15.13
2019-02-15T22:12:42.084Z,13.00
2019-02-15T22:15:14.619Z,11.10
2019-02-15T22:17:43.012Z,13.13
2019-02-15T22:20:13.209Z,13.03
2019-02-15T22:22:46.263Z,13.57
2019-02-15T22:25:14.837Z,11.60
2019-02-15T22:27:43.215Z,14.27
2019-02-15T22:30:20.155Z,12.67
2019-02-15T22:32:48.461Z,13.93
2019-02-15T22:35:16.828Z,16.23
2019-02-15T22:37:45.168Z,13.87
2019-02-15T22:40:27.347Z,12.20
2019-02-15T22:42:56.791Z,12.83
2019-02-15T22:45:25.107Z,16.40
2019-02-15T22:47:53.413Z,14.93
2019-02-15T22:50:21.723Z,11.40
2019-02-15T22:52:50.031Z,13.73
2019-02-15T22:55:18.314Z,14.30
2019-02-15T22:57:46.619Z,17.00
2019-02-15T23:00:20.815Z,14.27
2019-02-15T23:02:49.216Z,12.10
2019-02-15T23:05:17.499Z,12.83
2019-02-15T23:07:45.854Z,13.77
2019-02-15T23:10:14.321Z,14.40
2019-02-15T23:12:42.704Z,13.17
2019-02-15T23:15:11.020Z,12.50
2019-02-15T23:17:39.371Z,14.07
2019-02-15T23:20:07.860Z,14.90
2019-02-15T23:22:36.166Z,13.70
2019-02-15T23:25:05.835Z,14.10
2019-02-15T23:27:34.122Z,13.40
2019-02-15T23:30:02.401Z,15.03
2019-02-15T23:32:30.718Z,13.07
2019-02-15T23:34:59.111Z,15.33
2019-02-15T23:37:27.517Z,13.37
2019-02-15T23:39:55.797Z,13.10
2019-02-15T23:42:24.083Z,13.73
2019-02-15T23:44:52.408Z,15.20
2019-02-15T23:47:20.797Z,15.33
2019-02-15T23:49:49.097Z,12.27
2019-02-15T23:52:17.426Z,15.30
2019-02-15T23:54:46.340Z,14.20
2019-02-15T23:57:14.750Z,13.83
2019-02-15T23:59:43.219Z,13.67
